Time;durP1;ratioP1;P1;durP2;ratioP2;P2;SDS_P1;SDS_P2;PMS_P1;PMS_P2;Temp;Humidity;BMP_temperature;BMP_pressure;BME280_temperature;BME280_humidity;BME280_pressure;Samples;Min_cycle;Max_cycle;Signal;HPM_P1;HPM_P2
2021/06/02 00:03:49;;;;;;;3.73;3.00;;;12.50;45.80;;;;;;5100595;28;37716;-77
2021/06/02 00:06:16;;;;;;;5.40;3.30;;;12.50;46.20;;;;;;5088540;28;39893;-77
2021/06/02 00:08:47;;;;;;;4.10;2.93;;;12.40;46.40;;;;;;5101336;28;39384;-79
2021/06/02 00:11:15;;;;;;;3.30;3.00;;;12.40;46.60;;;;;;5087652;28;37474;-77
2021/06/02 00:13:42;;;;;;;4.10;3.33;;;12.30;46.80;;;;;;5098450;28;37212;-78
2021/06/02 00:16:10;;;;;;;4.13;3.10;;;12.30;46.70;;;;;;5118529;27;43038;-78
2021/06/02 00:18:38;;;;;;;4.80;3.83;;;12.30;46.80;;;;;;5116897;28;40197;-77
2021/06/02 00:21:07;;;;;;;3.50;3.00;;;12.20;46.90;;;;;;5115705;28;38724;-78
2021/06/02 00:23:34;;;;;;;3.87;3.03;;;12.20;47.20;;;;;;5115543;28;36234;-78
2021/06/02 00:26:02;;;;;;;3.53;3.23;;;12.10;47.30;;;;;;5115725;28;38555;-77
2021/06/02 00:28:29;;;;;;;3.23;2.93;;;12.10;47.30;;;;;;5137212;27;38691;-78
2021/06/02 00:31:00;;;;;;;4.43;3.17;;;12.10;47.40;;;;;;5146034;27;37387;-78
2021/06/02 00:33:31;;;;;;;4.23;3.63;;;12.00;47.50;;;;;;5107882;28;36667;-79
2021/06/02 00:35:59;;;;;;;4.30;3.50;;;12.00;47.60;;;;;;5107913;28;39398;-78
2021/06/02 00:38:28;;;;;;;3.50;3.20;;;12.00;47.30;;;;;;5108658;28;37580;-78
2021/06/02 00:40:55;;;;;;;3.83;3.20;;;11.90;47.90;;;;;;5139396;27;36266;-78
2021/06/02 00:43:22;;;;;;;3.70;3.30;;;11.90;47.30;;;;;;5100716;28;35638;-78
2021/06/02 00:45:49;;;;;;;3.80;3.10;;;11.90;47.70;;;;;;5113832;27;39959;-79
2021/06/02 00:48:18;;;;;;;3.10;2.87;;;11.90;47.70;;;;;;5149332;27;38758;-78
2021/06/02 00:50:46;;;;;;;4.33;3.93;;;11.80;47.70;;;;;;5111476;28;38733;-79
2021/06/02 00:53:14;;;;;;;4.00;3.30;;;11.80;47.80;;;;;;5106061;28;38375;-80
2021/06/02 00:55:45;;;;;;;6.90;4.10;;;11.70;47.80;;;;;;5096964;28;40272;-77
2021/06/02 00:58:19;;;;;;;6.90;5.20;;;11.70;48.00;;;;;;5083775;28;38983;-77
2021/06/02 01:00:46;;;;;;;5.10;4.33;;;11.60;48.00;;;;;;5090561;28;37699;-78
2021/06/02 01:03:14;;;;;;;6.30;5.50;;;11.60;48.00;;;;;;5109184;28;36883;-78
2021/06/02 01:05:42;;;;;;;5.57;4.83;;;11.50;48.00;;;;;;5095502;28;39787;-78
2021/06/02 01:08:10;;;;;;;8.43;4.70;;;11.50;48.20;;;;;;5097091;28;38802;-78
2021/06/02 01:10:37;;;;;;;5.37;4.83;;;11.50;48.40;;;;;;5087173;28;37679;-78
2021/06/02 01:13:07;;;;;;;7.57;5.60;;;11.50;48.50;;;;;;5081808;28;37608;-78
2021/06/02 01:15:35;;;;;;;5.37;4.33;;;11.40;48.70;;;;;;5093885;28;39330;-78
2021/06/02 01:18:03;;;;;;;5.37;4.77;;;11.40;48.80;;;;;;5094994;28;39645;-77
2021/06/02 01:20:31;;;;;;;6.30;3.87;;;11.40;48.60;;;;;;5088330;28;37739;-78
2021/06/02 01:22:59;;;;;;;5.17;4.63;;;11.30;48.60;;;;;;5108778;28;38185;-77
2021/06/02 01:25:26;;;;;;;6.47;4.47;;;11.20;48.70;;;;;;5118558;27;39109;-77
2021/06/02 01:27:53;;;;;;;4.57;4.17;;;11.20;48.70;;;;;;5096592;28;39775;-79
2021/06/02 01:30:23;;;;;;;4.40;4.03;;;11.20;49.00;;;;;;5097066;28;38473;-78
2021/06/02 01:33:11;;;;;;;4.83;3.93;;;11.10;49.30;;;;;;5095745;28;36730;-79
2021/06/02 01:35:58;;;;;;;4.60;4.10;;;11.10;49.30;;;;;;5096027;28;40541;-77
2021/06/02 01:39:20;;;;;;;4.90;4.10;;;11.00;49.50;;;;;;5083100;28;39059;-78
2021/06/02 01:42:12;;;;;;;4.47;3.97;;;11.00;49.70;;;;;;5093197;28;38333;-77
2021/06/02 01:45:15;;;;;;;4.27;3.87;;;10.90;49.90;;;;;;5092346;28;37096;-77
2021/06/02 01:48:23;;;;;;;5.13;4.30;;;10.90;49.90;;;;;;5061830;28;40390;-77
2021/06/02 01:51:29;;;;;;;4.77;4.27;;;10.80;49.80;;;;;;5091401;28;39068;-77
2021/06/02 01:54:30;;;;;;;4.83;4.40;;;10.80;49.80;;;;;;5084588;28;38412;-76
2021/06/02 01:57:29;;;;;;;4.83;4.30;;;10.80;50.10;;;;;;5091549;28;37439;-76
2021/06/02 02:00:24;;;;;;;6.10;4.73;;;10.80;50.10;;;;;;5080955;28;39488;-77
2021/06/02 02:03:09;;;;;;;5.03;4.53;;;10.80;50.10;;;;;;5088481;28;40222;-78
2021/06/02 02:06:20;;;;;;;5.10;4.60;;;10.70;50.30;;;;;;5086493;28;37785;-78
2021/06/02 02:08:50;;;;;;;6.13;4.50;;;10.60;50.50;;;;;;5095321;28;37382;-77
2021/06/02 02:11:30;;;;;;;4.37;3.97;;;10.60;50.60;;;;;;5094037;28;39324;-78
2021/06/02 02:14:27;;;;;;;5.20;4.70;;;10.60;50.80;;;;;;5098631;28;37529;-77
2021/06/02 02:17:02;;;;;;;4.90;3.97;;;10.50;50.90;;;;;;5092003;28;38539;-77
2021/06/02 02:20:06;;;;;;;4.40;3.93;;;10.40;51.00;;;;;;5088262;28;37097;-77
2021/06/02 02:22:58;;;;;;;3.97;3.67;;;10.40;51.10;;;;;;5085692;28;39478;-78
2021/06/02 02:25:27;;;;;;;4.80;4.30;;;10.30;51.10;;;;;;5094288;28;37307;-77
2021/06/02 02:28:08;;;;;;;4.37;3.97;;;10.20;51.20;;;;;;5094238;28;37596;-77
2021/06/02 02:30:45;;;;;;;4.10;3.70;;;10.20;51.50;;;;;;5089470;28;38040;-78
2021/06/02 02:33:35;;;;;;;5.47;4.00;;;10.20;51.60;;;;;;5094061;28;40226;-79
2021/06/02 02:36:12;;;;;;;6.57;3.97;;;10.20;51.70;;;;;;5087178;28;40186;-77
2021/06/02 02:38:57;;;;;;;3.37;3.07;;;10.10;51.70;;;;;;5089112;28;37732;-78
2021/06/02 02:41:49;;;;;;;4.13;3.70;;;10.10;51.80;;;;;;5095933;27;35667;-78
2021/06/02 02:44:37;;;;;;;5.73;5.13;;;10.10;51.90;;;;;;5086774;28;38531;-78
2021/06/02 02:47:13;;;;;;;5.00;4.20;;;10.10;51.90;;;;;;5091739;28;40115;-77
2021/06/02 02:49:47;;;;;;;4.57;4.10;;;10.00;51.70;;;;;;5091229;28;38339;-77
2021/06/02 02:52:21;;;;;;;5.27;4.37;;;9.90;52.80;;;;;;5122884;27;36868;-76
2021/06/02 02:54:54;;;;;;;6.40;4.53;;;10.00;52.00;;;;;;5081736;28;38288;-76
2021/06/02 02:57:31;;;;;;;8.03;4.83;;;9.90;53.00;;;;;;5108395;28;38594;-78
2021/06/02 03:00:05;;;;;;;5.47;4.93;;;9.90;52.90;;;;;;5094650;28;37249;-78
2021/06/02 03:02:42;;;;;;;7.43;5.43;;;9.90;53.00;;;;;;5109837;28;36152;-77
2021/06/02 03:05:14;;;;;;;6.93;5.10;;;9.80;52.90;;;;;;5107313;28;39984;-76
2021/06/02 03:07:48;;;;;;;6.23;4.80;;;9.80;53.20;;;;;;5077632;28;39533;-76
2021/06/02 03:10:20;;;;;;;4.80;4.30;;;9.80;53.40;;;;;;5097198;28;36312;-77
2021/06/02 03:12:55;;;;;;;5.20;4.53;;;9.70;53.40;;;;;;5107102;28;37584;-78
2021/06/02 03:15:43;;;;;;;5.57;4.97;;;9.70;53.30;;;;;;5103132;28;39925;-77
2021/06/02 03:18:20;;;;;;;4.90;4.27;;;9.70;53.50;;;;;;5092783;28;39322;-76
2021/06/02 03:20:55;;;;;;;6.43;4.20;;;9.70;53.40;;;;;;5090458;28;37446;-77
2021/06/02 03:23:41;;;;;;;4.10;3.60;;;9.80;53.40;;;;;;5091700;28;37250;-78
2021/06/02 03:26:11;;;;;;;4.60;4.03;;;9.70;53.60;;;;;;5090902;28;39453;-78
2021/06/02 03:28:51;;;;;;;4.60;4.20;;;9.70;53.40;;;;;;5092369;28;39381;-78
2021/06/02 03:31:41;;;;;;;6.77;4.43;;;9.70;53.40;;;;;;5091889;28;37871;-77
2021/06/02 03:34:25;;;;;;;8.50;3.70;;;9.70;53.20;;;;;;5089221;28;37291;-77
2021/06/02 03:37:05;;;;;;;5.37;3.67;;;9.70;53.20;;;;;;5103511;28;38353;-77
2021/06/02 03:39:47;;;;;;;5.93;4.17;;;9.60;53.20;;;;;;5091924;28;39717;-78
2021/06/02 03:42:27;;;;;;;4.67;3.43;;;9.60;53.10;;;;;;5097540;27;37462;-78
2021/06/02 03:45:06;;;;;;;4.20;3.80;;;9.60;52.90;;;;;;5100389;28;37826;-77
2021/06/02 03:47:45;;;;;;;4.23;3.53;;;9.60;52.60;;;;;;5084304;28;39195;-77
2021/06/02 03:50:18;;;;;;;4.53;3.30;;;9.60;52.60;;;;;;5089353;28;39033;-77
2021/06/02 03:53:06;;;;;;;4.43;3.70;;;9.60;52.50;;;;;;5092451;28;36995;-77
2021/06/02 03:55:37;;;;;;;7.80;3.80;;;9.60;52.50;;;;;;5089373;28;37009;-77
2021/06/02 03:58:19;;;;;;;5.30;4.27;;;9.70;52.50;;;;;;5091380;28;39504;-77
2021/06/02 04:00:51;;;;;;;6.13;4.50;;;9.70;52.70;;;;;;5091712;28;40140;-77
2021/06/02 04:03:24;;;;;;;5.23;4.40;;;9.80;52.80;;;;;;5092616;28;37566;-77
2021/06/02 04:05:58;;;;;;;7.97;5.23;;;9.80;52.70;;;;;;5090311;28;37071;-77
2021/06/02 04:08:40;;;;;;;5.07;4.57;;;9.90;52.70;;;;;;5088583;28;40461;-77
2021/06/02 04:11:15;;;;;;;5.00;4.43;;;9.90;52.70;;;;;;5073257;28;39194;-79
2021/06/02 04:13:54;;;;;;;4.90;4.37;;;10.00;51.80;;;;;;5079904;28;37876;-78
2021/06/02 04:16:23;;;;;;;4.57;4.17;;;10.10;51.70;;;;;;5078152;28;37039;-77
2021/06/02 04:18:52;;;;;;;4.57;4.10;;;10.10;51.80;;;;;;5088811;28;39367;-77
2021/06/02 04:21:22;;;;;;;4.43;3.63;;;10.20;51.60;;;;;;5092592;28;39318;-77
2021/06/02 04:23:50;;;;;;;4.40;4.00;;;10.40;51.40;;;;;;5091579;28;36485;-77
2021/06/02 04:26:17;;;;;;;4.27;3.87;;;10.40;51.20;;;;;;5092468;28;36999;-77
2021/06/02 04:28:45;;;;;;;8.20;4.80;;;10.50;51.90;;;;;;5104806;28;39550;-78
2021/06/02 04:31:14;;;;;;;8.93;3.70;;;10.60;51.30;;;;;;5088784;28;39320;-78
2021/06/02 04:33:43;;;;;;;5.20;3.80;;;10.60;50.60;;;;;;5090565;28;36135;-77
2021/06/02 04:36:14;;;;;;;5.70;3.93;;;10.70;50.30;;;;;;5090774;28;35832;-78
2021/06/02 04:38:42;;;;;;;5.70;3.73;;;10.80;50.10;;;;;;5087821;28;39860;-77
2021/06/02 04:41:10;;;;;;;4.50;3.70;;;10.80;50.40;;;;;;5077509;28;39437;-77
2021/06/02 04:43:40;;;;;;;5.40;4.10;;;10.90;49.60;;;;;;5088656;28;36435;-77
2021/06/02 04:46:08;;;;;;;6.57;4.40;;;11.00;49.50;;;;;;5085732;28;36025;-77
2021/06/02 04:48:36;;;;;;;7.00;4.27;;;11.10;49.60;;;;;;5093523;28;39476;-77
2021/06/02 04:52:01;;;;;;;8.40;4.90;;;11.10;49.50;;;;;;5082684;28;39728;-77
2021/06/02 04:55:14;;;;;;;7.43;4.83;;;11.20;49.60;;;;;;5076124;28;37764;-78
2021/06/02 04:58:12;;;;;;;5.90;4.20;;;11.30;49.30;;;;;;5083563;28;38409;-78
2021/06/02 05:01:01;;;;;;;4.40;4.00;;;11.30;49.20;;;;;;5107344;28;38429;-77
2021/06/02 05:04:25;;;;;;;15.87;5.70;;;11.40;49.30;;;;;;5093963;28;38472;-78
2021/06/02 05:07:28;;;;;;;7.13;4.50;;;11.50;49.50;;;;;;5001289;28;36479;-78
2021/06/02 05:10:49;;;;;;;8.97;4.97;;;11.60;49.20;;;;;;5087496;28;37164;-77
2021/06/02 05:13:45;;;;;;;6.90;4.20;;;11.80;49.10;;;;;;4970364;28;39864;-76
2021/06/02 05:17:05;;;;;;;6.67;3.93;;;11.90;48.90;;;;;;5061333;28;37963;-77
2021/06/02 05:20:15;;;;;;;9.30;4.60;;;12.10;48.70;;;;;;5090679;28;37926;-76
2021/06/02 05:23:25;;;;;;;9.27;5.53;;;12.40;48.00;;;;;;5097738;28;37619;-76
2021/06/02 05:26:43;;;;;;;7.20;4.23;;;12.60;48.00;;;;;;5108285;28;40517;-76
2021/06/02 05:30:06;;;;;;;6.67;5.50;;;12.90;47.80;;;;;;5089251;28;39599;-77
2021/06/02 05:33:09;;;;;;;8.40;5.70;;;13.20;47.60;;;;;;5103905;28;37446;-78
2021/06/02 05:36:13;;;;;;;5.87;4.90;;;13.80;47.40;;;;;;5098245;28;37479;-78
2021/06/02 05:39:11;;;;;;;8.43;4.40;;;16.20;44.20;;;;;;5095425;28;40705;-78
2021/06/02 05:41:54;;;;;;;5.50;5.00;;;19.40;38.00;;;;;;5092393;28;38557;-79
2021/06/02 05:44:59;;;;;;;7.90;4.23;;;22.60;33.20;;;;;;5090246;28;35903;-79
2021/06/02 05:48:00;;;;;;;5.70;4.60;;;25.80;29.30;;;;;;5087393;28;37097;-79
2021/06/02 05:51:21;;;;;;;7.60;4.30;;;28.70;26.50;;;;;;5093024;28;39450;-79
2021/06/02 05:54:25;;;;;;;7.33;4.10;;;31.30;23.40;;;;;;5051668;28;39560;-79
2021/06/02 05:57:37;;;;;;;4.90;4.40;;;33.00;21.30;;;;;;5071454;28;39147;-79
2021/06/02 06:00:44;;;;;;;5.47;4.17;;;34.80;19.70;;;;;;5078871;28;37864;-79
2021/06/02 06:03:44;;;;;;;6.57;4.10;;;36.10;18.20;;;;;;5090107;28;40223;-79
2021/06/02 06:06:21;;;;;;;6.13;4.50;;;37.30;17.20;;;;;;5088930;28;40307;-80
2021/06/02 06:09:26;;;;;;;6.10;4.50;;;38.00;16.80;;;;;;5110194;28;36852;-80
2021/06/02 06:12:29;;;;;;;6.50;4.53;;;38.80;15.70;;;;;;5093946;28;37763;-81
2021/06/02 06:15:26;;;;;;;5.93;4.90;;;38.80;15.30;;;;;;5092721;28;39624;-77
2021/06/02 06:18:23;;;;;;;7.77;5.13;;;39.40;14.70;;;;;;5092669;28;38968;-78
2021/06/02 06:21:22;;;;;;;6.93;4.03;;;39.70;14.90;;;;;;5092104;28;38375;-78
2021/06/02 06:23:55;;;;;;;10.10;4.50;;;39.90;14.00;;;;;;5089483;28;37344;-78
2021/06/02 06:26:29;;;;;;;8.23;4.53;;;40.20;14.10;;;;;;5091213;28;39886;-77
2021/06/02 06:29:08;;;;;;;4.73;4.10;;;39.70;13.50;;;;;;5092498;28;37744;-78
2021/06/02 06:31:41;;;;;;;6.77;4.07;;;40.20;13.40;;;;;;5090458;28;38358;-77
2021/06/02 06:34:12;;;;;;;62.10;17.80;;;40.20;13.30;;;;;;5091701;28;35909;-77
2021/06/02 06:36:40;;;;;;;8.10;4.13;;;40.40;13.50;;;;;;5091849;28;38306;-79
2021/06/02 06:39:20;;;;;;;6.20;3.87;;;40.00;13.00;;;;;;5092359;28;38942;-78
2021/06/02 06:41:49;;;;;;;4.50;3.63;;;39.70;13.20;;;;;;5092076;28;37615;-78
2021/06/02 06:44:18;;;;;;;5.43;3.50;;;39.70;13.20;;;;;;5089306;27;37761;-78
2021/06/02 06:46:53;;;;;;;5.43;3.50;;;40.10;12.90;;;;;;5091374;28;38500;-75
2021/06/02 06:49:22;;;;;;;6.00;3.50;;;40.00;12.60;;;;;;5089360;28;39561;-74
2021/06/02 06:51:52;;;;;;;4.30;3.30;;;39.90;12.40;;;;;;5092281;28;37607;-76
2021/06/02 06:54:21;;;;;;;4.90;3.10;;;40.00;12.40;;;;;;5090033;28;37968;-76
2021/06/02 06:56:50;;;;;;;4.67;2.63;;;39.50;12.10;;;;;;5092616;28;39539;-76
2021/06/02 06:59:18;;;;;;;3.80;3.50;;;39.40;12.60;;;;;;5091577;28;37831;-76
2021/06/02 07:01:49;;;;;;;5.10;3.07;;;39.20;12.60;;;;;;5089745;28;37936;-76
2021/06/02 07:04:17;;;;;;;30.27;6.33;;;38.40;12.40;;;;;;5092057;28;37067;-76
2021/06/02 07:06:47;;;;;;;7.33;3.50;;;38.00;13.00;;;;;;5092815;28;41802;-76
2021/06/02 07:09:15;;;;;;;4.27;3.27;;;38.00;13.00;;;;;;5080799;28;39632;-76
2021/06/02 07:11:44;;;;;;;3.13;2.83;;;37.60;13.00;;;;;;5092523;28;37693;-76
2021/06/02 07:14:18;;;;;;;3.10;2.90;;;37.30;13.00;;;;;;5088159;28;37997;-75
2021/06/02 07:16:45;;;;;;;3.00;2.60;;;36.90;13.10;;;;;;5091780;28;39795;-75
2021/06/02 07:19:15;;;;;;;3.00;2.80;;;35.10;13.70;;;;;;5093613;28;38905;-74
2021/06/02 07:21:45;;;;;;;3.90;2.77;;;33.20;15.00;;;;;;5093313;28;38171;-75
2021/06/02 07:24:12;;;;;;;3.40;3.10;;;33.00;15.90;;;;;;5092474;28;38054;-75
2021/06/02 07:26:40;;;;;;;2.73;2.50;;;33.90;15.20;;;;;;5093576;28;39478;-75
2021/06/02 07:29:07;;;;;;;3.80;2.77;;;34.20;14.80;;;;;;5093186;28;39251;-75
2021/06/02 07:31:34;;;;;;;3.20;2.50;;;34.30;14.50;;;;;;5125584;27;37390;-76
2021/06/02 07:34:01;;;;;;;4.77;2.43;;;34.70;14.10;;;;;;5091942;28;35913;-74
2021/06/02 07:36:30;;;;;;;3.43;2.53;;;33.00;14.70;;;;;;5092127;28;38806;-74
2021/06/02 07:38:57;;;;;;;4.67;2.33;;;32.30;16.00;;;;;;5092541;28;39783;-78
2021/06/02 07:41:24;;;;;;;3.07;2.20;;;32.90;15.20;;;;;;5092506;28;37660;-74
2021/06/02 07:43:51;;;;;;;4.90;2.73;;;33.20;15.00;;;;;;5093077;28;37817;-78
2021/06/02 07:46:18;;;;;;;4.23;1.97;;;33.60;15.70;;;;;;5092615;28;40371;-75
2021/06/02 07:48:45;;;;;;;4.43;2.10;;;33.70;13.70;;;;;;5090449;28;39885;-74
2021/06/02 07:51:12;;;;;;;3.40;2.73;;;33.70;14.40;;;;;;5080264;28;36728;-74
2021/06/02 07:53:41;;;;;;;3.00;2.20;;;33.70;14.20;;;;;;5090336;28;37191;-74
2021/06/02 07:56:08;;;;;;;3.93;2.17;;;32.90;14.70;;;;;;5091748;28;39565;-75
2021/06/02 07:58:35;;;;;;;3.97;2.27;;;33.20;14.90;;;;;;5091120;28;39955;-76
2021/06/02 08:01:03;;;;;;;3.60;2.57;;;33.80;15.60;;;;;;5088373;28;36331;-75
2021/06/02 08:03:30;;;;;;;2.67;2.40;;;34.30;14.20;;;;;;5089393;28;37239;-76
2021/06/02 08:05:57;;;;;;;2.30;2.10;;;34.90;14.40;;;;;;5091980;28;39904;-76
2021/06/02 08:08:24;;;;;;;2.63;2.43;;;35.20;12.50;;;;;;5090892;28;39059;-75
2021/06/02 08:10:52;;;;;;;2.50;2.30;;;35.10;13.90;;;;;;5090815;28;37512;-75
2021/06/02 08:13:20;;;;;;;4.00;2.60;;;35.40;13.40;;;;;;5087144;28;37928;-76
2021/06/02 08:15:47;;;;;;;4.13;2.50;;;36.20;13.70;;;;;;5091515;28;39782;-76
2021/06/02 08:18:17;;;;;;;6.47;2.60;;;36.80;13.30;;;;;;5093617;28;38857;-77
2021/06/02 08:20:44;;;;;;;3.50;2.30;;;36.90;12.40;;;;;;5092148;28;37984;-77
2021/06/02 08:23:11;;;;;;;3.00;1.93;;;37.50;12.50;;;;;;5095297;28;37228;-78
2021/06/02 08:25:38;;;;;;;7.40;2.43;;;37.80;13.00;;;;;;5094888;28;39673;-77
2021/06/02 08:28:06;;;;;;;4.20;2.50;;;38.10;12.20;;;;;;5095968;28;40363;-78
2021/06/02 08:30:33;;;;;;;4.10;2.10;;;38.40;12.00;;;;;;5092304;28;37912;-77
2021/06/02 08:33:01;;;;;;;2.50;2.30;;;38.60;11.20;;;;;;5092753;28;37048;-76
2021/06/02 08:35:28;;;;;;;2.07;1.87;;;38.90;11.80;;;;;;5095067;28;39819;-76
2021/06/02 08:37:55;;;;;;;6.00;2.27;;;38.80;11.30;;;;;;5086068;28;38945;-76
2021/06/02 08:40:23;;;;;;;2.40;2.20;;;39.10;11.20;;;;;;5094857;28;38039;-76
2021/06/02 08:42:50;;;;;;;4.60;2.63;;;38.90;11.20;;;;;;5093162;28;35931;-76
2021/06/02 08:45:23;;;;;;;6.30;2.50;;;39.00;12.10;;;;;;5095184;28;39851;-77
2021/06/02 08:47:50;;;;;;;3.23;2.50;;;39.40;11.20;;;;;;5092734;28;39178;-77
2021/06/02 08:50:19;;;;;;;4.50;2.27;;;39.40;11.20;;;;;;5094709;28;37875;-77
2021/06/02 08:52:47;;;;;;;3.70;2.30;;;39.50;10.90;;;;;;5094912;28;37378;-78
2021/06/02 08:55:17;;;;;;;3.47;2.23;;;39.30;11.40;;;;;;5093795;28;38344;-77
2021/06/02 08:57:45;;;;;;;3.50;2.10;;;39.40;11.60;;;;;;5093792;28;39410;-77
2021/06/02 09:00:14;;;;;;;3.37;2.00;;;39.40;11.20;;;;;;5092916;28;37337;-77
2021/06/02 09:02:47;;;;;;;4.23;2.13;;;39.30;11.10;;;;;;5092152;28;37366;-77
2021/06/02 09:05:15;;;;;;;3.47;2.30;;;39.10;10.80;;;;;;5095351;28;40414;-83
2021/06/02 09:07:42;;;;;;;5.83;2.17;;;39.10;11.10;;;;;;5093377;28;39295;-84
2021/06/02 09:10:11;;;;;;;5.30;2.00;;;40.90;10.50;;;;;;5128551;27;36033;-84
2021/06/02 09:12:40;;;;;;;2.60;1.90;;;42.90;9.30;;;;;;5088407;28;37047;-84
2021/06/02 09:15:09;;;;;;;2.90;1.97;;;44.60;8.30;;;;;;5096283;28;40283;-84
2021/06/02 09:17:50;;;;;;;1.90;1.60;;;46.70;8.10;;;;;;5094774;28;37568;-84
2021/06/02 09:20:38;;;;;;;3.27;2.23;;;48.10;7.00;;;;;;5092555;28;38624;-84
2021/06/02 09:23:27;;;;;;;2.00;1.80;;;49.50;6.70;;;;;;5092712;28;38041;-83
2021/06/02 09:25:58;;;;;;;2.70;1.93;;;50.40;6.00;;;;;;5094357;28;40378;-85
2021/06/02 09:28:48;;;;;;;2.00;1.90;;;50.70;5.30;;;;;;5091703;28;39763;-84
2021/06/02 09:31:40;;;;;;;3.80;1.67;;;50.60;5.20;;;;;;5093234;28;37666;-84
2021/06/02 09:34:16;;;;;;;3.43;2.20;;;50.70;5.80;;;;;;5134986;27;36654;-84
2021/06/02 09:36:48;;;;;;;3.23;1.87;;;50.90;5.00;;;;;;5094212;28;40591;-86
2021/06/02 09:39:17;;;;;;;3.67;1.70;;;51.30;4.50;;;;;;5097348;28;39015;-85
2021/06/02 09:41:48;;;;;;;1.80;1.60;;;51.20;4.40;;;;;;5107114;28;38241;-85
2021/06/02 09:44:19;;;;;;;3.93;1.70;;;51.70;4.30;;;;;;5112385;28;37408;-84
2021/06/02 09:47:05;;;;;;;3.80;1.70;;;51.50;4.20;;;;;;5109660;28;40907;-84
2021/06/02 09:49:48;;;;;;;2.20;1.70;;;52.10;4.50;;;;;;5083403;28;37511;-85
2021/06/02 09:52:16;;;;;;;2.23;1.70;;;52.50;4.40;;;;;;5124079;27;37351;-86
2021/06/02 09:54:43;;;;;;;1.90;1.80;;;52.70;4.30;;;;;;5094720;28;37035;-86
2021/06/02 09:57:11;;;;;;;1.90;1.80;;;52.80;3.80;;;;;;5093921;28;39890;-85
2021/06/02 09:59:53;;;;;;;2.40;1.80;;;52.70;3.80;;;;;;5094704;28;39006;-85
2021/06/02 10:02:20;;;;;;;2.40;1.60;;;52.70;3.70;;;;;;5092348;28;38495;-84
2021/06/02 10:04:59;;;;;;;5.27;2.00;;;51.80;4.10;;;;;;5093900;28;35831;-84
2021/06/02 10:07:28;;;;;;;5.13;2.10;;;51.70;3.80;;;;;;5080464;28;39635;-85
2021/06/02 10:10:07;;;;;;;2.10;1.77;;;51.90;4.40;;;;;;5128377;27;38749;-85
2021/06/02 10:12:35;;;;;;;2.53;2.10;;;52.10;3.90;;;;;;5094059;28;37622;-85
2021/06/02 10:15:02;;;;;;;2.37;1.80;;;52.00;4.00;;;;;;5125260;27;35918;-84
2021/06/02 10:17:31;;;;;;;2.67;1.53;;;52.10;3.70;;;;;;5093490;28;38659;-84
2021/06/02 10:20:06;;;;;;;2.57;1.93;;;51.90;3.80;;;;;;5092288;28;38962;-85
2021/06/02 10:22:33;;;;;;;3.77;1.90;;;52.10;3.60;;;;;;5091521;28;37933;-85
2021/06/02 10:25:03;;;;;;;4.40;1.80;;;51.70;3.80;;;;;;5094789;28;37502;-85
2021/06/02 10:27:30;;;;;;;3.03;2.20;;;50.90;3.80;;;;;;5089067;28;38755;-86
2021/06/02 10:29:57;;;;;;;3.90;2.13;;;50.40;3.60;;;;;;5092111;28;39414;-84
2021/06/02 10:32:26;;;;;;;4.50;1.83;;;49.60;3.40;;;;;;5084257;28;36318;-84
2021/06/02 10:34:54;;;;;;;1.73;1.60;;;49.10;3.70;;;;;;5092151;28;35455;-85
2021/06/02 10:37:24;;;;;;;2.73;1.80;;;48.40;3.80;;;;;;5093233;28;40561;-84
2021/06/02 10:39:57;;;;;;;1.53;1.43;;;48.40;3.40;;;;;;5090471;28;38935;-84
2021/06/02 10:42:34;;;;;;;7.43;1.80;;;47.60;3.70;;;;;;5091693;28;37603;-85
2021/06/02 10:45:09;;;;;;;5.83;1.63;;;47.80;4.00;;;;;;5124369;27;36595;-84
2021/06/02 10:47:36;;;;;;;2.00;1.70;;;47.60;3.10;;;;;;5090078;28;39900;-85
2021/06/02 10:50:04;;;;;;;3.40;2.07;;;47.50;3.90;;;;;;5093495;28;39102;-85
2021/06/02 10:52:38;;;;;;;2.60;1.80;;;47.30;3.80;;;;;;5092999;28;37170;-83
2021/06/02 10:55:37;;;;;;;4.50;1.67;;;47.10;4.00;;;;;;5097088;28;37889;-82
2021/06/02 10:58:30;;;;;;;3.40;1.77;;;46.50;3.80;;;;;;5093810;28;39249;-82
2021/06/02 11:01:16;;;;;;;2.07;1.70;;;46.00;3.60;;;;;;5089180;28;39647;-81
2021/06/02 11:03:44;;;;;;;5.13;1.90;;;44.70;3.80;;;;;;5095185;28;37234;-83
2021/06/02 11:06:35;;;;;;;3.30;1.80;;;43.20;4.60;;;;;;5093338;28;36727;-82
2021/06/02 11:09:20;;;;;;;4.20;1.70;;;42.10;5.40;;;;;;5091638;28;39598;-82
2021/06/02 11:11:47;;;;;;;1.70;1.60;;;41.20;5.80;;;;;;5090886;28;39070;-82
2021/06/02 11:14:28;;;;;;;3.50;2.30;;;40.70;6.00;;;;;;5091393;28;38351;-81
2021/06/02 11:17:14;;;;;;;3.63;1.90;;;40.10;6.10;;;;;;5089635;28;37002;-81
2021/06/02 11:19:43;;;;;;;5.87;1.80;;;39.20;6.30;;;;;;5092458;28;39909;-82
2021/06/02 11:22:15;;;;;;;3.33;2.37;;;38.10;6.80;;;;;;5091588;28;39105;-82
2021/06/02 11:24:48;;;;;;;4.37;1.97;;;37.10;7.80;;;;;;5092075;28;37034;-82
2021/06/02 11:27:35;;;;;;;4.00;1.90;;;35.80;8.70;;;;;;5090285;28;37167;-82
2021/06/02 11:30:30;;;;;;;4.50;1.93;;;34.80;8.90;;;;;;5090381;28;41167;-82
2021/06/02 11:33:09;;;;;;;2.80;1.90;;;34.20;8.90;;;;;;5089404;28;38978;-82
2021/06/02 11:35:59;;;;;;;4.30;2.10;;;33.40;9.80;;;;;;5092554;28;38352;-82
2021/06/02 11:38:28;;;;;;;4.40;1.80;;;32.60;11.10;;;;;;5092162;28;37374;-82
2021/06/02 11:40:59;;;;;;;2.10;1.90;;;31.90;11.40;;;;;;5093016;28;39543;-82
2021/06/02 11:43:26;;;;;;;3.60;2.10;;;31.50;10.80;;;;;;5090860;28;38776;-82
2021/06/02 11:45:56;;;;;;;33.87;4.43;;;31.00;11.60;;;;;;5092937;28;37622;-83
2021/06/02 11:48:26;;;;;;;4.27;1.90;;;30.50;11.60;;;;;;5091552;28;36927;-82
2021/06/02 11:50:54;;;;;;;3.00;1.90;;;30.00;11.60;;;;;;5095224;28;38302;-82
2021/06/02 11:53:21;;;;;;;2.10;1.90;;;29.80;12.60;;;;;;5097773;28;40209;-83
2021/06/02 11:55:50;;;;;;;10.13;2.97;;;29.50;12.30;;;;;;5095243;28;37522;-82
2021/06/02 11:58:19;;;;;;;5.07;2.20;;;29.30;12.20;;;;;;5096361;28;37536;-82
2021/06/02 12:00:48;;;;;;;2.30;1.50;;;29.10;13.30;;;;;;5090470;28;39585;-82
2021/06/02 12:03:15;;;;;;;1.97;1.80;;;28.90;12.80;;;;;;5091524;28;39820;-82
2021/06/02 12:05:43;;;;;;;3.37;1.87;;;28.90;13.00;;;;;;5098408;28;38441;-83
2021/06/02 12:08:12;;;;;;;5.33;1.73;;;28.70;13.00;;;;;;5098943;28;37264;-82
2021/06/02 12:10:42;;;;;;;3.50;2.00;;;28.60;13.60;;;;;;5099535;28;40438;-82
2021/06/02 12:13:14;;;;;;;5.17;1.97;;;28.60;13.90;;;;;;5108142;28;39989;-83
2021/06/02 12:15:45;;;;;;;3.70;1.83;;;28.60;14.50;;;;;;5098291;28;38030;-83
2021/06/02 12:18:28;;;;;;;3.63;1.70;;;28.50;14.00;;;;;;5094327;28;37413;-82
2021/06/02 12:21:09;;;;;;;2.30;2.07;;;28.50;14.80;;;;;;5093249;28;39991;-83
2021/06/02 12:23:45;;;;;;;1.97;1.63;;;28.40;14.20;;;;;;5091959;28;37707;-82
2021/06/02 12:26:27;;;;;;;3.83;1.80;;;28.40;15.40;;;;;;5089141;28;36341;-82
2021/06/02 12:28:55;;;;;;;2.40;1.80;;;28.40;14.80;;;;;;5095365;28;37999;-83
2021/06/02 12:31:36;;;;;;;2.77;2.10;;;28.40;15.60;;;;;;5096065;28;39788;-83
2021/06/02 12:34:06;;;;;;;4.60;1.83;;;28.40;14.70;;;;;;5095064;28;37870;-83
2021/06/02 12:36:33;;;;;;;2.53;2.03;;;28.40;14.70;;;;;;5129484;27;36273;-83
2021/06/02 12:39:09;;;;;;;2.97;1.90;;;28.30;14.70;;;;;;5096106;28;36788;-81
2021/06/02 12:41:37;;;;;;;2.43;2.03;;;28.10;14.80;;;;;;5095877;28;39832;-82
2021/06/02 12:44:05;;;;;;;2.60;2.10;;;28.00;15.30;;;;;;5095955;28;40080;-81
2021/06/02 12:46:34;;;;;;;2.73;1.77;;;27.90;15.60;;;;;;5094776;28;37891;-81
2021/06/02 12:49:05;;;;;;;5.00;2.33;;;28.00;16.70;;;;;;5095984;28;37766;-82
2021/06/02 12:51:33;;;;;;;4.23;1.93;;;28.00;16.30;;;;;;5092872;28;39727;-82
2021/06/02 12:54:03;;;;;;;3.00;1.93;;;28.00;15.60;;;;;;5094332;28;38089;-83
2021/06/02 12:56:30;;;;;;;2.20;2.00;;;28.00;15.80;;;;;;5096060;28;38790;-82
2021/06/02 12:58:59;;;;;;;3.67;2.07;;;28.00;16.70;;;;;;5094994;28;38309;-82
2021/06/02 13:01:31;;;;;;;2.23;1.97;;;28.00;16.00;;;;;;5094505;28;40668;-82
2021/06/02 13:04:02;;;;;;;2.43;2.00;;;27.90;15.40;;;;;;5094851;28;39482;-81
2021/06/02 13:06:31;;;;;;;23.70;21.20;;;27.90;16.70;;;;;;5093795;28;38349;-81
2021/06/02 13:09:00;;;;;;;3.43;1.90;;;27.80;16.20;;;;;;5092985;28;37086;-82
2021/06/02 13:11:29;;;;;;;7.20;2.30;;;27.70;16.20;;;;;;5094856;28;40314;-82
2021/06/02 13:13:57;;;;;;;9.23;2.87;;;27.70;15.70;;;;;;5092791;28;39091;-82
2021/06/02 13:16:30;;;;;;;3.67;2.17;;;27.80;17.30;;;;;;5091267;28;37553;-82
2021/06/02 13:19:03;;;;;;;3.57;1.70;;;27.90;17.10;;;;;;5094258;28;37380;-83
2021/06/02 13:21:31;;;;;;;3.70;1.90;;;28.00;16.70;;;;;;5097750;28;39547;-82
2021/06/02 13:24:12;;;;;;;5.40;2.33;;;28.00;15.90;;;;;;5095177;28;39866;-83
2021/06/02 13:26:39;;;;;;;3.70;2.00;;;28.10;16.20;;;;;;5096030;28;37572;-84
2021/06/02 13:29:10;;;;;;;2.73;2.00;;;28.10;16.70;;;;;;5129283;27;35948;-84
2021/06/02 13:31:40;;;;;;;7.50;2.17;;;28.20;16.40;;;;;;5094029;28;38289;-82
2021/06/02 13:34:09;;;;;;;6.73;2.30;;;28.20;16.80;;;;;;5089948;28;39398;-82
2021/06/02 13:36:40;;;;;;;4.53;2.10;;;28.30;16.50;;;;;;5094394;28;37771;-83
2021/06/02 13:39:09;;;;;;;2.30;2.07;;;28.30;16.90;;;;;;5092993;28;37165;-83
2021/06/02 13:41:36;;;;;;;3.40;1.80;;;28.30;16.80;;;;;;5091710;28;40211;-82